sensor_id;sensor_type;location;lat;lon;timestamp;pressure;altitude;pressure_sealevel;temperature;humidity
8697;BME280;4385;48.848;8.924;2023-09-08T00:02:02;97647.47;;;22.48;100.00
8697;BME280;4385;48.848;8.924;2023-09-08T00:04:28;97650.94;;;22.47;100.00
8697;BME280;4385;48.848;8.924;2023-09-08T00:06:53;97651.84;;;22.46;100.00
8697;BME280;4385;48.848;8.924;2023-09-08T00:09:18;97659.59;;;22.45;100.00
8697;BME280;4385;48.848;8.924;2023-09-08T00:11:43;97657.06;;;22.43;100.00
8697;BME280;4385;48.848;8.924;2023-09-08T00:14:09;97658.81;;;22.42;100.00
8697;BME280;4385;48.848;8.924;2023-09-08T00:16:34;97650.25;;;22.42;100.00
8697;BME280;4385;48.848;8.924;2023-09-08T00:18:59;97653.72;;;22.41;100.00
8697;BME280;4385;48.848;8.924;2023-09-08T00:21:25;97648.63;;;22.39;100.00
8697;BME280;4385;48.848;8.924;2023-09-08T00:23:54;97655.50;;;22.39;100.00
8697;BME280;4385;48.848;8.924;2023-09-08T00:26:20;97660.63;;;22.39;100.00
8697;BME280;4385;48.848;8.924;2023-09-08T00:28:47;97647.84;;;22.37;100.00
8697;BME280;4385;48.848;8.924;2023-09-08T00:31:12;97647.03;;;22.37;100.00
8697;BME280;4385;48.848;8.924;2023-09-08T00:33:38;97650.47;;;22.36;100.00
8697;BME280;4385;48.848;8.924;2023-09-08T00:36:03;97650.47;;;22.36;100.00
8697;BME280;4385;48.848;8.924;2023-09-08T00:38:29;97658.16;;;22.36;100.00
8697;BME280;4385;48.848;8.924;2023-09-08T00:40:54;97653.94;;;22.35;100.00
8697;BME280;4385;48.848;8.924;2023-09-08T00:43:19;97659.06;;;22.35;100.00
8697;BME280;4385;48.848;8.924;2023-09-08T00:45:45;97647.13;;;22.34;100.00
8697;BME280;4385;48.848;8.924;2023-09-08T00:48:11;97651.38;;;22.35;100.00
8697;BME280;4385;48.848;8.924;2023-09-08T00:50:37;97651.44;;;22.33;100.00
8697;BME280;4385;48.848;8.924;2023-09-08T00:53:06;97656.56;;;22.33;100.00
8697;BME280;4385;48.848;8.924;2023-09-08T00:55:32;97645.44;;;22.33;100.00
8697;BME280;4385;48.848;8.924;2023-09-08T00:57:59;97649.75;;;22.32;100.00
8697;BME280;4385;48.848;8.924;2023-09-08T01:00:25;97647.19;;;22.32;100.00
8697;BME280;4385;48.848;8.924;2023-09-08T01:02:50;97654.06;;;22.32;100.00
8697;BME280;4385;48.848;8.924;2023-09-08T01:05:16;97642.94;;;22.31;100.00
8697;BME280;4385;48.848;8.924;2023-09-08T01:07:42;97648.13;;;22.29;100.00
8697;BME280;4385;48.848;8.924;2023-09-08T01:10:07;97640.41;;;22.29;100.00
8697;BME280;4385;48.848;8.924;2023-09-08T01:12:33;97643.00;;;22.29;100.00
8697;BME280;4385;48.848;8.924;2023-09-08T01:15:00;97642.16;;;22.29;100.00
8697;BME280;4385;48.848;8.924;2023-09-08T01:17:26;97634.41;;;22.30;100.00
8697;BME280;4385;48.848;8.924;2023-09-08T01:19:54;97635.28;;;22.29;100.00
8697;BME280;4385;48.848;8.924;2023-09-08T01:22:29;97634.47;;;22.29;100.00
8697;BME280;4385;48.848;8.924;2023-09-08T01:25:23;97631.97;;;22.27;100.00
8697;BME280;4385;48.848;8.924;2023-09-08T01:27:53;97636.19;;;22.28;100.00
8697;BME280;4385;48.848;8.924;2023-09-08T01:30:21;97633.72;;;22.25;100.00
8697;BME280;4385;48.848;8.924;2023-09-08T01:32:49;97638.88;;;22.25;100.00
8697;BME280;4385;48.848;8.924;2023-09-08T01:35:15;97635.44;;;22.25;100.00
8697;BME280;4385;48.848;8.924;2023-09-08T01:37:41;97640.63;;;22.23;100.00
8697;BME280;4385;48.848;8.924;2023-09-08T01:40:07;97634.75;;;22.21;100.00
8697;BME280;4385;48.848;8.924;2023-09-08T01:42:33;97637.31;;;22.21;100.00
8697;BME280;4385;48.848;8.924;2023-09-08T01:44:59;97627.09;;;22.20;100.00
8697;BME280;4385;48.848;8.924;2023-09-08T01:47:24;97628.81;;;22.19;100.00
8697;BME280;4385;48.848;8.924;2023-09-08T01:49:49;97634.84;;;22.18;100.00
8697;BME280;4385;48.848;8.924;2023-09-08T01:52:14;97634.91;;;22.16;100.00
8697;BME280;4385;48.848;8.924;2023-09-08T01:54:40;97634.91;;;22.16;100.00
8697;BME280;4385;48.848;8.924;2023-09-08T01:57:05;97623.78;;;22.16;100.00
8697;BME280;4385;48.848;8.924;2023-09-08T01:59:30;97628.03;;;22.17;100.00
8697;BME280;4385;48.848;8.924;2023-09-08T02:01:56;97629.81;;;22.15;100.00
8697;BME280;4385;48.848;8.924;2023-09-08T02:04:21;97634.97;;;22.15;100.00
8697;BME280;4385;48.848;8.924;2023-09-08T02:06:46;97633.22;;;22.15;100.00
8697;BME280;4385;48.848;8.924;2023-09-08T02:09:14;97633.22;;;22.15;100.00
8697;BME280;4385;48.848;8.924;2023-09-08T02:11:39;97632.41;;;22.15;100.00
8697;BME280;4385;48.848;8.924;2023-09-08T02:14:04;97630.66;;;22.15;100.00
8697;BME280;4385;48.848;8.924;2023-09-08T02:16:29;97627.25;;;22.15;100.00
8697;BME280;4385;48.848;8.924;2023-09-08T02:18:55;97637.53;;;22.15;100.00
8697;BME280;4385;48.848;8.924;2023-09-08T02:21:21;97635.81;;;22.14;100.00
8697;BME280;4385;48.848;8.924;2023-09-08T02:23:46;97635.00;;;22.13;100.00
8697;BME280;4385;48.848;8.924;2023-09-08T02:26:11;97631.59;;;22.13;100.00
8697;BME280;4385;48.848;8.924;2023-09-08T02:28:37;97623.91;;;22.13;100.00
8697;BME280;4385;48.848;8.924;2023-09-08T02:31:02;97621.34;;;22.13;100.00
8697;BME280;4385;48.848;8.924;2023-09-08T02:33:27;97623.91;;;22.13;100.00
8697;BME280;4385;48.848;8.924;2023-09-08T02:35:53;97625.56;;;22.14;100.00
8697;BME280;4385;48.848;8.924;2023-09-08T02:38:19;97624.75;;;22.13;100.00
8697;BME280;4385;48.848;8.924;2023-09-08T02:40:44;97627.38;;;22.12;100.00
8697;BME280;4385;48.848;8.924;2023-09-08T02:43:09;97623.94;;;22.11;100.00
8697;BME280;4385;48.848;8.924;2023-09-08T02:45:35;97630.81;;;22.11;100.00
8697;BME280;4385;48.848;8.924;2023-09-08T02:48:01;97624.84;;;22.10;100.00
8697;BME280;4385;48.848;8.924;2023-09-08T02:50:26;97625.66;;;22.11;100.00
8697;BME280;4385;48.848;8.924;2023-09-08T02:52:52;97624.00;;;22.10;100.00
8697;BME280;4385;48.848;8.924;2023-09-08T02:55:17;97624.00;;;22.10;100.00
8697;BME280;4385;48.848;8.924;2023-09-08T02:57:42;97618.03;;;22.09;100.00
8697;BME280;4385;48.848;8.924;2023-09-08T03:00:08;97624.00;;;22.10;100.00
8697;BME280;4385;48.848;8.924;2023-09-08T03:02:34;97622.34;;;22.09;100.00
8697;BME280;4385;48.848;8.924;2023-09-08T03:05:00;97624.00;;;22.10;100.00
8697;BME280;4385;48.848;8.924;2023-09-08T03:07:26;97623.16;;;22.09;100.00
8697;BME280;4385;48.848;8.924;2023-09-08T03:09:52;97616.38;;;22.08;100.00
8697;BME280;4385;48.848;8.924;2023-09-08T03:12:17;97617.22;;;22.09;100.00
8697;BME280;4385;48.848;8.924;2023-09-08T03:14:43;97614.69;;;22.07;100.00
8697;BME280;4385;48.848;8.924;2023-09-08T03:17:08;97613.84;;;22.07;100.00
8697;BME280;4385;48.848;8.924;2023-09-08T03:19:34;97610.38;;;22.08;100.00
8697;BME280;4385;48.848;8.924;2023-09-08T03:21:59;97616.47;;;22.05;100.00
8697;BME280;4385;48.848;8.924;2023-09-08T03:24:24;97615.63;;;22.04;100.00
8697;BME280;4385;48.848;8.924;2023-09-08T03:26:49;97610.53;;;22.03;100.00
8697;BME280;4385;48.848;8.924;2023-09-08T03:29:15;97616.53;;;22.03;100.00
8697;BME280;4385;48.848;8.924;2023-09-08T03:31:40;97614.00;;;22.02;100.00
8697;BME280;4385;48.848;8.924;2023-09-08T03:34:05;97617.47;;;22.01;100.00
8697;BME280;4385;48.848;8.924;2023-09-08T03:36:31;97620.88;;;22.01;100.00
8697;BME280;4385;48.848;8.924;2023-09-08T03:38:56;97617.53;;;21.99;100.00
8697;BME280;4385;48.848;8.924;2023-09-08T03:41:23;97620.97;;;21.98;100.00
8697;BME280;4385;48.848;8.924;2023-09-08T03:43:48;97620.97;;;21.98;100.00
8697;BME280;4385;48.848;8.924;2023-09-08T03:46:14;97615.03;;;21.98;100.00
8697;BME280;4385;48.848;8.924;2023-09-08T03:48:39;97615.06;;;21.96;100.00
8697;BME280;4385;48.848;8.924;2023-09-08T03:51:05;97613.31;;;21.97;100.00
8697;BME280;4385;48.848;8.924;2023-09-08T03:53:30;97612.50;;;21.96;100.00
8697;BME280;4385;48.848;8.924;2023-09-08T03:55:56;97616.78;;;21.96;100.00
8697;BME280;4385;48.848;8.924;2023-09-08T03:58:21;97616.75;;;21.97;100.00
8697;BME280;4385;48.848;8.924;2023-09-08T04:00:46;97622.78;;;21.96;100.00
8697;BME280;4385;48.848;8.924;2023-09-08T04:03:12;97622.78;;;21.96;100.00
8697;BME280;4385;48.848;8.924;2023-09-08T04:05:37;97619.41;;;21.94;100.00
8697;BME280;4385;48.848;8.924;2023-09-08T04:08:02;97627.06;;;21.96;100.00
8697;BME280;4385;48.848;8.924;2023-09-08T04:10:28;97628.78;;;21.95;100.00
8697;BME280;4385;48.848;8.924;2023-09-08T04:12:53;97633.03;;;21.96;100.00
8697;BME280;4385;48.848;8.924;2023-09-08T04:15:18;97632.94;;;21.99;100.00
8697;BME280;4385;48.848;8.924;2023-09-08T04:17:45;97626.16;;;21.97;100.00
8697;BME280;4385;48.848;8.924;2023-09-08T04:20:10;97627.91;;;21.96;100.00
8697;BME280;4385;48.848;8.924;2023-09-08T04:22:36;97624.53;;;21.94;100.00
8697;BME280;4385;48.848;8.924;2023-09-08T04:25:01;97622.03;;;21.92;100.00
8697;BME280;4385;48.848;8.924;2023-09-08T04:27:27;97628.00;;;21.93;100.00
8697;BME280;4385;48.848;8.924;2023-09-08T04:29:52;97633.13;;;21.93;100.00
8697;BME280;4385;48.848;8.924;2023-09-08T04:32:18;97626.31;;;21.92;100.00
8697;BME280;4385;48.848;8.924;2023-09-08T04:34:43;97633.19;;;21.91;100.00
8697;BME280;4385;48.848;8.924;2023-09-08T04:37:09;97634.00;;;21.92;100.00
8697;BME280;4385;48.848;8.924;2023-09-08T04:39:35;97636.56;;;21.92;100.00
8697;BME280;4385;48.848;8.924;2023-09-08T04:42:01;97638.31;;;21.91;100.00
8697;BME280;4385;48.848;8.924;2023-09-08T04:44:26;97640.03;;;21.91;100.00
8697;BME280;4385;48.848;8.924;2023-09-08T04:46:52;97645.16;;;21.91;100.00
8697;BME280;4385;48.848;8.924;2023-09-08T04:49:18;97637.47;;;21.91;100.00
8697;BME280;4385;48.848;8.924;2023-09-08T04:51:44;97644.31;;;21.90;100.00
8697;BME280;4385;48.848;8.924;2023-09-08T04:54:09;97636.69;;;21.89;100.00
8697;BME280;4385;48.848;8.924;2023-09-08T04:56:34;97639.25;;;21.89;100.00
8697;BME280;4385;48.848;8.924;2023-09-08T04:58:59;97639.28;;;21.87;100.00
8697;BME280;4385;48.848;8.924;2023-09-08T05:01:29;97640.19;;;21.86;100.00
8697;BME280;4385;48.848;8.924;2023-09-08T05:03:57;97641.09;;;21.85;100.00
8697;BME280;4385;48.848;8.924;2023-09-08T05:06:22;97637.69;;;21.85;100.00
8697;BME280;4385;48.848;8.924;2023-09-08T05:08:48;97638.59;;;21.84;100.00
8697;BME280;4385;48.848;8.924;2023-09-08T05:11:14;97643.72;;;21.84;100.00
8697;BME280;4385;48.848;8.924;2023-09-08T05:13:39;97647.16;;;21.83;100.00
8697;BME280;4385;48.848;8.924;2023-09-08T05:16:05;97642.91;;;21.82;100.00
8697;BME280;4385;48.848;8.924;2023-09-08T05:18:40;97640.34;;;21.82;100.00
8697;BME280;4385;48.848;8.924;2023-09-08T05:21:06;97652.31;;;21.81;100.00
8697;BME280;4385;48.848;8.924;2023-09-08T05:23:31;97644.63;;;21.81;100.00
8697;BME280;4385;48.848;8.924;2023-09-08T05:25:56;97649.75;;;21.81;100.00
8697;BME280;4385;48.848;8.924;2023-09-08T05:28:22;97650.59;;;21.82;100.00
8697;BME280;4385;48.848;8.924;2023-09-08T05:30:47;97650.59;;;21.82;100.00
8697;BME280;4385;48.848;8.924;2023-09-08T05:33:12;97651.47;;;21.82;100.00
8697;BME280;4385;48.848;8.924;2023-09-08T05:35:38;97650.59;;;21.82;100.00
8697;BME280;4385;48.848;8.924;2023-09-08T05:38:03;97651.47;;;21.82;100.00
8697;BME280;4385;48.848;8.924;2023-09-08T05:40:29;97651.47;;;21.82;100.00
8697;BME280;4385;48.848;8.924;2023-09-08T05:42:54;97643.81;;;21.80;100.00
8697;BME280;4385;48.848;8.924;2023-09-08T05:45:19;97661.72;;;21.82;100.00
8697;BME280;4385;48.848;8.924;2023-09-08T05:47:45;97657.41;;;21.83;100.00
8697;BME280;4385;48.848;8.924;2023-09-08T05:50:10;97664.28;;;21.82;100.00
8697;BME280;4385;48.848;8.924;2023-09-08T05:52:36;97660.91;;;21.80;100.00
8697;BME280;4385;48.848;8.924;2023-09-08T05:55:01;97657.50;;;21.79;100.00
8697;BME280;4385;48.848;8.924;2023-09-08T05:57:26;97654.19;;;21.77;100.00
8697;BME280;4385;48.848;8.924;2023-09-08T05:59:52;97654.19;;;21.77;100.00
8697;BME280;4385;48.848;8.924;2023-09-08T06:02:17;97663.59;;;21.77;100.00
8697;BME280;4385;48.848;8.924;2023-09-08T06:04:42;97659.31;;;21.77;100.00
8697;BME280;4385;48.848;8.924;2023-09-08T06:07:07;97657.59;;;21.76;100.00
8697;BME280;4385;48.848;8.924;2023-09-08T06:09:33;97652.47;;;21.76;100.00
8697;BME280;4385;48.848;8.924;2023-09-08T06:11:58;97651.59;;;21.77;100.00
8697;BME280;4385;48.848;8.924;2023-09-08T06:14:23;97651.63;;;21.76;100.00
8697;BME280;4385;48.848;8.924;2023-09-08T06:16:48;97645.63;;;21.77;100.00
8697;BME280;4385;48.848;8.924;2023-09-08T06:19:14;97655.00;;;21.78;100.00
8697;BME280;4385;48.848;8.924;2023-09-08T06:21:39;97646.47;;;21.77;100.00
8697;BME280;4385;48.848;8.924;2023-09-08T06:24:04;97637.94;;;21.77;100.00
8697;BME280;4385;48.848;8.924;2023-09-08T06:26:30;97637.09;;;21.76;100.00
8697;BME280;4385;48.848;8.924;2023-09-08T06:28:55;97640.44;;;21.78;100.00
8697;BME280;4385;48.848;8.924;2023-09-08T06:31:20;97641.34;;;21.77;100.00
8697;BME280;4385;48.848;8.924;2023-09-08T06:33:46;97641.34;;;21.77;100.00
8697;BME280;4385;48.848;8.924;2023-09-08T06:36:11;97641.38;;;21.76;100.00
8697;BME280;4385;48.848;8.924;2023-09-08T06:38:36;97635.41;;;21.75;100.00
8697;BME280;4385;48.848;8.924;2023-09-08T06:41:08;97635.41;;;21.75;100.00
8697;BME280;4385;48.848;8.924;2023-09-08T06:43:34;97646.50;;;21.76;100.00
8697;BME280;4385;48.848;8.924;2023-09-08T06:45:59;97635.41;;;21.75;100.00
8697;BME280;4385;48.848;8.924;2023-09-08T06:48:24;97639.66;;;21.76;100.00
8697;BME280;4385;48.848;8.924;2023-09-08T06:50:53;97637.09;;;21.76;100.00
8697;BME280;4385;48.848;8.924;2023-09-08T06:53:19;97642.22;;;21.76;100.00
8697;BME280;4385;48.848;8.924;2023-09-08T06:55:44;97642.22;;;21.76;100.00
8697;BME280;4385;48.848;8.924;2023-09-08T06:58:09;97645.63;;;21.77;100.00
8697;BME280;4385;48.848;8.924;2023-09-08T07:00:35;97653.31;;;21.77;100.00
8697;BME280;4385;48.848;8.924;2023-09-08T07:03:00;97652.47;;;21.76;100.00
8697;BME280;4385;48.848;8.924;2023-09-08T07:05:27;97651.59;;;21.77;100.00
8697;BME280;4385;48.848;8.924;2023-09-08T07:07:52;97653.31;;;21.77;100.00
8697;BME280;4385;48.848;8.924;2023-09-08T07:10:18;97657.59;;;21.76;100.00
8697;BME280;4385;48.848;8.924;2023-09-08T07:12:43;97655.88;;;21.77;100.00
8697;BME280;4385;48.848;8.924;2023-09-08T07:15:09;97652.47;;;21.76;100.00
8697;BME280;4385;48.848;8.924;2023-09-08T07:17:34;97660.97;;;21.78;100.00
8697;BME280;4385;48.848;8.924;2023-09-08T07:19:59;97659.31;;;21.77;100.00
8697;BME280;4385;48.848;8.924;2023-09-08T07:22:24;97657.56;;;21.78;100.00
8697;BME280;4385;48.848;8.924;2023-09-08T07:24:50;97660.13;;;21.78;100.00
8697;BME280;4385;48.848;8.924;2023-09-08T07:27:15;97657.50;;;21.79;100.00
8697;BME280;4385;48.848;8.924;2023-09-08T07:29:41;97652.38;;;21.79;100.00
8697;BME280;4385;48.848;8.924;2023-09-08T07:32:07;97656.63;;;21.80;100.00
8697;BME280;4385;48.848;8.924;2023-09-08T07:34:32;97655.00;;;21.78;100.00
8697;BME280;4385;48.848;8.924;2023-09-08T07:36:57;97648.09;;;21.80;100.00
8697;BME280;4385;48.848;8.924;2023-09-08T07:39:23;97654.06;;;21.80;100.00
8697;BME280;4385;48.848;8.924;2023-09-08T07:41:48;97652.38;;;21.79;100.00
8697;BME280;4385;48.848;8.924;2023-09-08T07:44:13;97652.38;;;21.79;100.00
8697;BME280;4385;48.848;8.924;2023-09-08T07:46:38;97657.50;;;21.79;100.00
8697;BME280;4385;48.848;8.924;2023-09-08T07:49:04;97657.50;;;21.79;100.00
8697;BME280;4385;48.848;8.924;2023-09-08T07:51:29;97657.50;;;21.79;100.00
8697;BME280;4385;48.848;8.924;2023-09-08T07:53:54;97654.94;;;21.79;100.00
8697;BME280;4385;48.848;8.924;2023-09-08T07:56:21;97654.06;;;21.80;100.00
8697;BME280;4385;48.848;8.924;2023-09-08T07:58:46;97657.41;;;21.83;100.00
8697;BME280;4385;48.848;8.924;2023-09-08T08:01:13;97648.84;;;21.84;100.00
8697;BME280;4385;48.848;8.924;2023-09-08T08:03:38;97659.09;;;21.84;100.00
8697;BME280;4385;48.848;8.924;2023-09-08T08:06:04;97649.66;;;21.84;100.00
8697;BME280;4385;48.848;8.924;2023-09-08T08:08:30;97650.50;;;21.85;100.00
8697;BME280;4385;48.848;8.924;2023-09-08T08:10:55;97653.03;;;21.86;100.00
8697;BME280;4385;48.848;8.924;2023-09-08T08:13:20;97649.59;;;21.86;100.00
8697;BME280;4385;48.848;8.924;2023-09-08T08:15:46;97652.16;;;21.86;100.00
8697;BME280;4385;48.848;8.924;2023-09-08T08:18:12;97651.31;;;21.87;100.00
8697;BME280;4385;48.848;8.924;2023-09-08T08:20:38;97648.75;;;21.87;100.00
8697;BME280;4385;48.848;8.924;2023-09-08T08:23:05;97653.88;;;21.87;100.00
8697;BME280;4385;48.848;8.924;2023-09-08T08:25:30;97649.56;;;21.87;100.00
8697;BME280;4385;48.848;8.924;2023-09-08T08:27:55;97653.88;;;21.87;100.00
8697;BME280;4385;48.848;8.924;2023-09-08T08:30:26;97653.88;;;21.87;100.00
8697;BME280;4385;48.848;8.924;2023-09-08T08:32:51;97651.31;;;21.87;100.00
8697;BME280;4385;48.848;8.924;2023-09-08T08:35:19;97653.03;;;21.86;100.00
8697;BME280;4385;48.848;8.924;2023-09-08T08:37:44;97650.41;;;21.88;100.00
8697;BME280;4385;48.848;8.924;2023-09-08T08:40:10;97649.56;;;21.87;100.00
8697;BME280;4385;48.848;8.924;2023-09-08T08:42:39;97645.22;;;21.89;100.00
8697;BME280;4385;48.848;8.924;2023-09-08T08:45:05;97641.81;;;21.89;100.00
8697;BME280;4385;48.848;8.924;2023-09-08T08:47:31;97648.69;;;21.88;100.00
8697;BME280;4385;48.848;8.924;2023-09-08T08:49:57;97652.97;;;21.88;100.00
8697;BME280;4385;48.848;8.924;2023-09-08T08:52:29;97648.75;;;21.87;100.00
8697;BME280;4385;48.848;8.924;2023-09-08T08:54:54;97643.59;;;21.87;100.00
8697;BME280;4385;48.848;8.924;2023-09-08T08:57:20;97648.75;;;21.87;100.00
8697;BME280;4385;48.848;8.924;2023-09-08T08:59:47;97649.56;;;21.87;100.00
8697;BME280;4385;48.848;8.924;2023-09-08T09:02:14;97647.00;;;21.87;100.00
8697;BME280;4385;48.848;8.924;2023-09-08T09:04:40;97643.56;;;21.88;100.00
8697;BME280;4385;48.848;8.924;2023-09-08T09:07:06;97649.50;;;21.89;100.00
8697;BME280;4385;48.848;8.924;2023-09-08T09:09:31;97646.13;;;21.88;100.00
8697;BME280;4385;48.848;8.924;2023-09-08T09:11:57;97643.50;;;21.90;100.00
8697;BME280;4385;48.848;8.924;2023-09-08T09:14:22;97638.38;;;21.90;100.00
8697;BME280;4385;48.848;8.924;2023-09-08T09:16:48;97641.81;;;21.89;100.00
8697;BME280;4385;48.848;8.924;2023-09-08T09:19:19;97648.63;;;21.90;100.00
8697;BME280;4385;48.848;8.924;2023-09-08T09:21:53;97650.31;;;21.91;100.00
8697;BME280;4385;48.848;8.924;2023-09-08T09:24:36;97651.09;;;21.93;100.00
8697;BME280;4385;48.848;8.924;2023-09-08T09:27:07;97652.81;;;21.92;100.00
8697;BME280;4385;48.848;8.924;2023-09-08T09:29:33;97649.34;;;21.93;100.00
8697;BME280;4385;48.848;8.924;2023-09-08T09:32:04;97652.81;;;21.92;100.00
8697;BME280;4385;48.848;8.924;2023-09-08T09:34:31;97645.97;;;21.93;100.00
8697;BME280;4385;48.848;8.924;2023-09-08T09:36:56;97643.41;;;21.93;100.00
8697;BME280;4385;48.848;8.924;2023-09-08T09:39:24;97646.72;;;21.95;100.00
8697;BME280;4385;48.848;8.924;2023-09-08T09:41:54;97650.19;;;21.94;100.00
8697;BME280;4385;48.848;8.924;2023-09-08T09:44:21;97645.06;;;21.94;100.00
8697;BME280;4385;48.848;8.924;2023-09-08T09:46:46;97650.19;;;21.94;100.00
8697;BME280;4385;48.848;8.924;2023-09-08T09:49:15;97653.56;;;21.96;100.00
8697;BME280;4385;48.848;8.924;2023-09-08T09:51:45;97645.00;;;21.96;100.00
8697;BME280;4385;48.848;8.924;2023-09-08T09:54:12;97651.00;;;21.96;100.00
8697;BME280;4385;48.848;8.924;2023-09-08T09:56:39;97648.44;;;21.96;100.00
8697;BME280;4385;48.848;8.924;2023-09-08T09:59:08;97644.13;;;21.97;100.00
8697;BME280;4385;48.848;8.924;2023-09-08T10:01:35;97640.69;;;21.98;100.00
8697;BME280;4385;48.848;8.924;2023-09-08T10:04:00;97648.31;;;21.99;100.00
8697;BME280;4385;48.848;8.924;2023-09-08T10:06:28;97646.56;;;22.00;100.00
8697;BME280;4385;48.848;8.924;2023-09-08T10:08:56;97641.28;;;22.04;100.00
8697;BME280;4385;48.848;8.924;2023-09-08T10:11:24;97643.94;;;22.01;100.00
8697;BME280;4385;48.848;8.924;2023-09-08T10:13:57;97641.38;;;22.01;100.00
8697;BME280;4385;48.848;8.924;2023-09-08T10:16:26;97638.81;;;22.01;100.00
8697;BME280;4385;48.848;8.924;2023-09-08T10:18:53;97642.25;;;22.02;100.00
8697;BME280;4385;48.848;8.924;2023-09-08T10:21:21;97634.47;;;22.03;100.00
8697;BME280;4385;48.848;8.924;2023-09-08T10:23:59;97638.78;;;22.03;100.00
8697;BME280;4385;48.848;8.924;2023-09-08T10:26:30;97637.91;;;22.04;100.00
8697;BME280;4385;48.848;8.924;2023-09-08T10:28:58;97625.06;;;22.04;100.00
8697;BME280;4385;48.848;8.924;2023-09-08T10:31:25;97630.19;;;22.04;100.00
8697;BME280;4385;48.848;8.924;2023-09-08T10:33:54;97632.72;;;22.05;100.00
8697;BME280;4385;48.848;8.924;2023-09-08T10:36:20;97630.97;;;22.06;100.00
8697;BME280;4385;48.848;8.924;2023-09-08T10:38:46;97628.41;;;22.06;100.00
8697;BME280;4385;48.848;8.924;2023-09-08T10:43:46;97622.44;;;22.05;100.00
8697;BME280;4385;48.848;8.924;2023-09-08T10:46:21;97627.53;;;22.07;100.00
8697;BME280;4385;48.848;8.924;2023-09-08T10:48:47;97624.97;;;22.07;100.00
8697;BME280;4385;48.848;8.924;2023-09-08T10:51:22;97630.09;;;22.07;100.00
8697;BME280;4385;48.848;8.924;2023-09-08T10:53:49;97626.63;;;22.08;100.00
8697;BME280;4385;48.848;8.924;2023-09-08T10:56:15;97627.47;;;22.09;100.00
8697;BME280;4385;48.848;8.924;2023-09-08T10:58:40;97624.91;;;22.09;100.00
8697;BME280;4385;48.848;8.924;2023-09-08T11:01:12;97634.28;;;22.10;100.00
8697;BME280;4385;48.848;8.924;2023-09-08T11:06:04;97631.72;;;22.10;100.00
8697;BME280;4385;48.848;8.924;2023-09-08T11:08:30;97625.66;;;22.11;100.00
8697;BME280;4385;48.848;8.924;2023-09-08T11:10:56;97625.66;;;22.11;100.00
8697;BME280;4385;48.848;8.924;2023-09-08T11:13:21;97632.50;;;22.12;100.00
8697;BME280;4385;48.848;8.924;2023-09-08T11:15:47;97625.56;;;22.14;100.00
8697;BME280;4385;48.848;8.924;2023-09-08T11:18:12;97621.34;;;22.13;100.00
8697;BME280;4385;48.848;8.924;2023-09-08T11:20:37;97616.19;;;22.13;100.00
8697;BME280;4385;48.848;8.924;2023-09-08T11:23:03;97623.06;;;22.12;100.00
8697;BME280;4385;48.848;8.924;2023-09-08T11:25:31;97623.84;;;22.14;100.00
8697;BME280;4385;48.848;8.924;2023-09-08T11:27:57;97618.66;;;22.16;100.00
8697;BME280;4385;48.848;8.924;2023-09-08T11:30:22;97620.31;;;22.17;100.00
8697;BME280;4385;48.848;8.924;2023-09-08T11:32:48;97632.28;;;22.18;100.00
8697;BME280;4385;48.848;8.924;2023-09-08T11:35:13;97626.31;;;22.17;100.00
8697;BME280;4385;48.848;8.924;2023-09-08T11:37:41;97620.28;;;22.18;100.00
8697;BME280;4385;48.848;8.924;2023-09-08T11:40:08;97624.53;;;22.20;100.00
8697;BME280;4385;48.848;8.924;2023-09-08T11:42:40;97625.34;;;22.20;100.00
8697;BME280;4385;48.848;8.924;2023-09-08T11:45:13;97625.34;;;22.20;100.00
8697;BME280;4385;48.848;8.924;2023-09-08T11:47:42;97619.41;;;22.20;100.00
8697;BME280;4385;48.848;8.924;2023-09-08T11:50:09;97627.03;;;22.21;100.00
8697;BME280;4385;48.848;8.924;2023-09-08T11:52:37;97629.59;;;22.21;100.00
8697;BME280;4385;48.848;8.924;2023-09-08T11:55:02;97619.34;;;22.21;100.00
8697;BME280;4385;48.848;8.924;2023-09-08T11:57:28;97624.41;;;22.23;100.00
8697;BME280;4385;48.848;8.924;2023-09-08T11:59:54;97622.66;;;22.23;100.00
8697;BME280;4385;48.848;8.924;2023-09-08T12:02:19;97617.47;;;22.25;100.00
8697;BME280;4385;48.848;8.924;2023-09-08T12:04:45;97622.63;;;22.25;100.00
8697;BME280;4385;48.848;8.924;2023-09-08T12:07:13;97614.84;;;22.26;100.00
8697;BME280;4385;48.848;8.924;2023-09-08T12:09:40;97610.56;;;22.27;100.00
8697;BME280;4385;48.848;8.924;2023-09-08T12:12:11;97611.44;;;22.27;100.00
8697;BME280;4385;48.848;8.924;2023-09-08T12:14:43;97611.44;;;22.27;100.00
8697;BME280;4385;48.848;8.924;2023-09-08T12:17:08;97607.09;;;22.28;100.00
8697;BME280;4385;48.848;8.924;2023-09-08T12:19:34;97607.09;;;22.28;100.00
8697;BME280;4385;48.848;8.924;2023-09-08T12:22:03;97602.81;;;22.28;100.00
8697;BME280;4385;48.848;8.924;2023-09-08T12:24:49;97611.31;;;22.30;100.00
8697;BME280;4385;48.848;8.924;2023-09-08T12:27:15;97611.31;;;22.30;100.00
8697;BME280;4385;48.848;8.924;2023-09-08T12:29:51;97603.63;;;22.30;100.00
8697;BME280;4385;48.848;8.924;2023-09-08T12:32:16;97611.31;;;22.30;100.00
8697;BME280;4385;48.848;8.924;2023-09-08T12:34:43;97608.63;;;22.34;100.00
8697;BME280;4385;48.848;8.924;2023-09-08T12:37:09;97592.38;;;22.33;100.00
8697;BME280;4385;48.848;8.924;2023-09-08T12:39:36;97601.75;;;22.34;100.00
8697;BME280;4385;48.848;8.924;2023-09-08T12:42:03;97601.75;;;22.34;100.00
8697;BME280;4385;48.848;8.924;2023-09-08T12:44:28;97592.31;;;22.35;100.00
8697;BME280;4385;48.848;8.924;2023-09-08T12:46:54;97590.56;;;22.37;100.00
8697;BME280;4385;48.848;8.924;2023-09-08T12:49:19;97584.56;;;22.36;100.00
8697;BME280;4385;48.848;8.924;2023-09-08T12:51:44;97581.16;;;22.36;100.00
8697;BME280;4385;48.848;8.924;2023-09-08T12:54:10;97585.41;;;22.37;100.00
8697;BME280;4385;48.848;8.924;2023-09-08T12:56:35;97575.16;;;22.37;100.00
8697;BME280;4385;48.848;8.924;2023-09-08T12:59:00;97576.81;;;22.38;100.00
8697;BME280;4385;48.848;8.924;2023-09-08T13:01:26;97576.81;;;22.38;100.00
8697;BME280;4385;48.848;8.924;2023-09-08T13:03:51;97567.38;;;22.38;100.00
8697;BME280;4385;48.848;8.924;2023-09-08T13:06:16;97576.81;;;22.38;100.00
8697;BME280;4385;48.848;8.924;2023-09-08T13:08:42;97576.81;;;22.38;100.00
8697;BME280;4385;48.848;8.924;2023-09-08T13:11:07;97580.16;;;22.40;100.00